createdAt,value
2019-05-29T00:02:07.859Z,0.40
2019-05-29T00:04:36.390Z,0.27
2019-05-29T00:07:06.003Z,0.40
2019-05-29T00:09:34.623Z,0.20
2019-05-29T00:12:03.064Z,0.40
2019-05-29T00:14:31.471Z,0.30
2019-05-29T00:17:00.177Z,0.23
2019-05-29T00:19:28.617Z,0.70
2019-05-29T00:21:59.268Z,0.20
2019-05-29T00:24:27.716Z,0.30
2019-05-29T00:26:56.280Z,0.30
2019-05-29T00:29:24.687Z,0.20
2019-05-29T00:31:53.117Z,0.20
2019-05-29T00:34:21.596Z,0.30
2019-05-29T00:36:51.569Z,0.70
2019-05-29T00:39:19.962Z,0.20
2019-05-29T00:41:48.383Z,0.40
2019-05-29T00:44:17.465Z,0.43
2019-05-29T00:46:46.959Z,0.27
2019-05-29T00:49:16.014Z,0.57
2019-05-29T00:51:44.501Z,0.40
2019-05-29T00:54:12.948Z,0.30
2019-05-29T00:56:41.364Z,0.20
2019-05-29T00:59:11.054Z,0.30
2019-05-29T01:01:39.619Z,0.63
2019-05-29T01:04:08.099Z,0.50
2019-05-29T01:06:36.540Z,0.50
2019-05-29T01:09:07.509Z,0.40
2019-05-29T01:11:35.940Z,0.70
2019-05-29T01:14:04.540Z,0.40
2019-05-29T01:16:33.080Z,0.50
2019-05-29T01:19:20.303Z,0.73
2019-05-29T01:21:48.867Z,0.70
2019-05-29T01:24:18.348Z,0.50
2019-05-29T01:26:46.826Z,0.30
2019-05-29T01:29:15.272Z,0.57
2019-05-29T01:31:43.828Z,0.70
2019-05-29T01:34:13.489Z,0.50
2019-05-29T01:36:42.112Z,0.70
2019-05-29T01:39:10.544Z,0.60
2019-05-29T01:41:39.010Z,0.40
2019-05-29T01:44:07.595Z,0.53
2019-05-29T01:46:36.053Z,0.50
2019-05-29T01:49:04.467Z,0.50
2019-05-29T01:51:32.908Z,0.50
2019-05-29T01:54:01.380Z,0.40
2019-05-29T01:56:29.856Z,0.73
2019-05-29T01:58:58.516Z,0.60
2019-05-29T02:01:28.149Z,0.50
2019-05-29T02:03:57.206Z,0.50
2019-05-29T02:06:25.943Z,1.00
2019-05-29T02:08:56.357Z,1.37
2019-05-29T02:11:27.574Z,0.70
2019-05-29T02:13:56.091Z,0.30
2019-05-29T02:16:24.882Z,0.47
2019-05-29T02:18:53.403Z,0.50
2019-05-29T02:21:22.327Z,0.50
2019-05-29T02:23:50.830Z,0.40
2019-05-29T02:26:20.298Z,0.30
2019-05-29T02:28:48.884Z,0.47
2019-05-29T02:31:19.118Z,0.83
2019-05-29T02:33:47.505Z,0.40
2019-05-29T02:36:15.927Z,0.70
2019-05-29T02:38:44.426Z,0.43
2019-05-29T02:41:13.144Z,0.70
2019-05-29T02:43:41.571Z,0.63
2019-05-29T02:46:10.008Z,0.70
2019-05-29T02:48:38.428Z,0.90
2019-05-29T02:51:06.881Z,0.50
2019-05-29T02:53:35.285Z,0.43
2019-05-29T02:56:03.721Z,0.43
2019-05-29T02:58:32.149Z,0.30
2019-05-29T03:01:00.599Z,0.33
2019-05-29T03:03:31.703Z,0.50
2019-05-29T03:05:59.205Z,0.30
2019-05-29T03:08:29.644Z,0.30
2019-05-29T03:10:57.871Z,0.30
2019-05-29T03:13:27.596Z,0.30
2019-05-29T03:16:09.901Z,0.60
2019-05-29T03:18:28.041Z,0.80
2019-05-29T03:20:56.847Z,0.30
2019-05-29T03:23:26.616Z,0.40
2019-05-29T03:25:55.364Z,0.50
2019-05-29T03:28:23.791Z,0.53
2019-05-29T03:30:52.214Z,0.30
2019-05-29T03:33:20.627Z,0.30
2019-05-29T03:35:49.222Z,0.30
2019-05-29T03:38:17.709Z,0.40
2019-05-29T03:40:46.179Z,0.53
2019-05-29T03:43:14.882Z,0.50
2019-05-29T03:45:43.341Z,0.90
2019-05-29T03:48:11.769Z,0.30
2019-05-29T03:50:40.600Z,0.80
2019-05-29T03:53:09.098Z,0.40
2019-05-29T03:55:37.956Z,0.40
2019-05-29T03:58:06.634Z,0.50
2019-05-29T04:00:41.341Z,0.80
2019-05-29T04:03:05.353Z,0.60
2019-05-29T04:05:35.293Z,0.57
2019-05-29T04:08:04.176Z,0.60
2019-05-29T04:10:34.964Z,0.97
2019-05-29T04:13:02.907Z,0.53
2019-05-29T04:15:36.576Z,0.90
2019-05-29T04:18:07.144Z,0.77
2019-05-29T04:20:38.728Z,0.93
2019-05-29T04:23:07.873Z,0.90
2019-05-29T04:25:40.638Z,1.00
2019-05-29T04:28:08.329Z,1.00
2019-05-29T04:30:38.677Z,0.97
2019-05-29T04:33:07.122Z,1.00
2019-05-29T04:35:36.808Z,0.80
2019-05-29T04:38:05.643Z,0.80
2019-05-29T04:40:34.995Z,0.40
2019-05-29T04:43:04.233Z,0.50
2019-05-29T04:45:33.206Z,1.07
2019-05-29T04:48:02.522Z,0.80
2019-05-29T04:50:31.895Z,0.80
2019-05-29T04:53:01.163Z,0.90
2019-05-29T04:55:30.651Z,0.50
2019-05-29T04:57:59.309Z,0.90
2019-05-29T05:00:28.924Z,0.80
2019-05-29T05:02:57.659Z,0.67
2019-05-29T05:05:26.075Z,0.60
2019-05-29T05:07:54.499Z,0.60
2019-05-29T05:10:40.890Z,0.60
2019-05-29T05:13:09.839Z,0.70
2019-05-29T05:15:38.490Z,1.23
2019-05-29T05:18:07.224Z,0.67
2019-05-29T05:20:36.210Z,0.63
2019-05-29T05:23:05.696Z,0.60
2019-05-29T05:25:34.556Z,0.40
2019-05-29T05:28:03.131Z,0.60
2019-05-29T05:30:32.380Z,0.50
2019-05-29T05:33:00.980Z,0.37
2019-05-29T05:35:30.607Z,0.30
2019-05-29T05:37:59.316Z,0.33
2019-05-29T05:40:27.733Z,0.47
2019-05-29T05:42:56.160Z,0.63
2019-05-29T05:45:24.594Z,0.40
2019-05-29T05:47:57.246Z,0.40
2019-05-29T05:50:23.401Z,0.63
2019-05-29T05:52:51.898Z,0.43
2019-05-29T05:55:20.361Z,0.20
2019-05-29T05:57:48.786Z,0.30
2019-05-29T06:00:20.288Z,0.37
2019-05-29T06:02:52.126Z,0.30
2019-05-29T06:05:18.966Z,0.20
2019-05-29T06:07:47.394Z,0.20
2019-05-29T06:10:15.879Z,0.30
2019-05-29T06:12:44.332Z,0.40
2019-05-29T06:15:13.200Z,0.37
2019-05-29T06:17:46.820Z,0.30
2019-05-29T06:20:12.317Z,0.20
2019-05-29T06:22:41.168Z,0.33
2019-05-29T06:25:10.610Z,0.30
2019-05-29T06:27:39.313Z,0.30
2019-05-29T06:30:08.944Z,0.27
2019-05-29T06:32:37.474Z,0.30
2019-05-29T06:35:06.643Z,0.57
2019-05-29T06:37:35.607Z,0.50
2019-05-29T06:40:05.946Z,0.37
2019-05-29T06:42:35.715Z,0.57
2019-05-29T06:45:06.278Z,0.30
2019-05-29T06:47:36.261Z,0.20
2019-05-29T06:50:06.549Z,0.60
2019-05-29T06:52:35.373Z,0.27
2019-05-29T06:55:04.320Z,0.20
2019-05-29T06:57:32.742Z,0.23
2019-05-29T07:00:01.168Z,0.60
2019-05-29T07:02:31.798Z,0.40
2019-05-29T07:04:59.774Z,0.37
2019-05-29T07:07:28.218Z,0.40
2019-05-29T07:09:56.649Z,0.20
2019-05-29T07:12:25.086Z,0.30
2019-05-29T07:14:53.514Z,0.30
2019-05-29T07:17:21.950Z,0.20
2019-05-29T07:20:00.745Z,0.30
2019-05-29T07:22:20.538Z,0.27
2019-05-29T07:24:48.983Z,0.20
2019-05-29T07:27:17.399Z,0.10
2019-05-29T07:29:47.351Z,0.37
2019-05-29T07:32:15.834Z,0.23
2019-05-29T07:34:57.863Z,0.30
2019-05-29T07:37:14.416Z,0.20
2019-05-29T07:39:43.553Z,0.40
2019-05-29T07:42:12.138Z,0.30
2019-05-29T07:44:42.063Z,0.20
2019-05-29T07:47:10.681Z,0.20
2019-05-29T07:49:42.725Z,0.50
2019-05-29T07:52:09.286Z,0.20
2019-05-29T07:54:37.791Z,0.30
2019-05-29T07:57:06.322Z,0.20
2019-05-29T07:59:34.768Z,0.40
2019-05-29T08:02:03.369Z,0.20
2019-05-29T08:04:31.843Z,0.33
2019-05-29T08:07:00.268Z,0.23
2019-05-29T08:09:28.715Z,0.17
2019-05-29T08:11:57.138Z,0.20
2019-05-29T08:14:25.567Z,0.20
2019-05-29T08:16:54.035Z,0.40
2019-05-29T08:19:22.479Z,0.13
2019-05-29T08:21:50.895Z,0.20
2019-05-29T08:24:19.358Z,0.30
2019-05-29T08:26:48.939Z,0.13
2019-05-29T08:29:17.491Z,0.20
2019-05-29T08:31:46.823Z,0.27
2019-05-29T08:34:15.416Z,0.20
2019-05-29T08:37:02.898Z,0.27
2019-05-29T08:39:30.761Z,0.10
2019-05-29T08:41:53.465Z,0.20
2019-05-29T08:44:14.499Z,0.40
2019-05-29T08:47:00.672Z,0.40
2019-05-29T08:49:13.487Z,0.30
2019-05-29T08:51:41.988Z,0.20
2019-05-29T08:54:23.384Z,0.27
2019-05-29T08:56:40.559Z,0.30
2019-05-29T08:59:09.009Z,0.50
2019-05-29T09:01:37.522Z,0.20
2019-05-29T09:04:08.857Z,0.33
2019-05-29T09:06:37.275Z,0.27
2019-05-29T09:09:07.785Z,0.20
2019-05-29T09:11:36.204Z,0.40
2019-05-29T09:14:04.916Z,0.50
2019-05-29T09:16:33.523Z,0.20
2019-05-29T09:19:02.144Z,0.40
2019-05-29T09:21:30.566Z,0.50
2019-05-29T09:23:59.221Z,0.50
2019-05-29T09:26:27.783Z,0.43
2019-05-29T09:28:56.218Z,0.30
2019-05-29T09:31:24.671Z,0.20
2019-05-29T09:33:53.157Z,0.60
2019-05-29T09:36:22.765Z,0.50
2019-05-29T09:38:51.505Z,0.20
2019-05-29T09:41:21.590Z,0.20
2019-05-29T09:43:58.993Z,0.40
2019-05-29T09:46:21.845Z,0.40
2019-05-29T09:48:50.460Z,0.30
2019-05-29T09:51:21.476Z,0.20
2019-05-29T09:53:49.135Z,0.20
2019-05-29T09:56:17.590Z,0.30
2019-05-29T09:58:46.018Z,0.30
2019-05-29T10:01:22.974Z,0.20
2019-05-29T10:03:44.692Z,0.30
2019-05-29T10:06:13.182Z,0.30
2019-05-29T10:08:41.599Z,0.30
2019-05-29T10:11:11.142Z,0.27
2019-05-29T10:13:39.866Z,0.20
2019-05-29T10:16:08.483Z,0.30
2019-05-29T10:18:37.662Z,0.23
2019-05-29T10:21:06.139Z,0.30
2019-05-29T10:23:34.544Z,0.50
2019-05-29T10:26:04.637Z,0.57
2019-05-29T10:28:49.276Z,0.30
2019-05-29T10:32:52.841Z,0.30
2019-05-29T10:33:33.460Z,0.27
2019-05-29T10:36:04.066Z,0.37
2019-05-29T10:38:32.124Z,0.23
2019-05-29T10:41:06.742Z,0.40
2019-05-29T10:43:34.567Z,0.40
2019-05-29T10:46:01.215Z,0.50
2019-05-29T10:48:29.635Z,0.20
2019-05-29T10:50:58.084Z,0.37
2019-05-29T10:53:26.520Z,0.30
2019-05-29T10:55:55.064Z,0.50
2019-05-29T10:58:23.567Z,0.30
2019-05-29T11:00:53.258Z,0.20
2019-05-29T11:03:21.863Z,0.20
2019-05-29T11:05:51.541Z,0.50
2019-05-29T11:08:20.200Z,0.40
2019-05-29T11:10:48.631Z,0.37
2019-05-29T11:13:17.061Z,0.30
2019-05-29T11:15:46.465Z,0.28
2019-05-29T11:18:15.086Z,0.23
2019-05-29T11:20:43.524Z,0.47
2019-05-29T11:23:12.182Z,0.57
2019-05-29T11:25:41.385Z,0.60
2019-05-29T11:28:09.828Z,0.40
2019-05-29T11:30:38.251Z,0.50
2019-05-29T11:33:06.756Z,0.35
2019-05-29T11:35:35.218Z,0.30
2019-05-29T11:38:03.820Z,0.40
2019-05-29T11:40:32.432Z,0.40
2019-05-29T11:43:00.999Z,0.30
2019-05-29T11:45:29.497Z,0.33
2019-05-29T11:47:59.622Z,0.30
2019-05-29T11:50:28.294Z,0.30
2019-05-29T11:52:57.041Z,0.40
2019-05-29T11:55:25.462Z,0.40
2019-05-29T11:57:53.925Z,0.30
2019-05-29T12:00:22.635Z,0.50
2019-05-29T12:02:51.618Z,0.30
2019-05-29T12:05:20.649Z,0.27
2019-05-29T12:07:49.107Z,0.40
2019-05-29T12:10:17.995Z,0.30
2019-05-29T12:12:46.589Z,0.40
2019-05-29T12:15:18.627Z,0.30
2019-05-29T12:17:46.165Z,0.40
2019-05-29T12:20:27.214Z,0.30
2019-05-29T12:23:11.297Z,0.30
2019-05-29T12:25:15.438Z,0.20
2019-05-29T12:27:43.872Z,0.62
2019-05-29T12:30:13.040Z,0.47
2019-05-29T12:32:41.482Z,0.40
2019-05-29T12:35:10.345Z,0.62
2019-05-29T12:37:38.772Z,0.97
2019-05-29T12:40:08.127Z,0.28
2019-05-29T12:42:36.647Z,0.30
2019-05-29T12:45:07.699Z,0.23
2019-05-29T12:47:36.156Z,0.40
2019-05-29T12:50:12.238Z,0.30
2019-05-29T12:52:41.038Z,0.80
2019-05-29T12:55:11.096Z,0.30
2019-05-29T12:57:39.532Z,0.30
2019-05-29T13:00:13.868Z,0.30
2019-05-29T13:02:42.303Z,0.30
2019-05-29T13:05:18.056Z,0.40
2019-05-29T13:07:42.320Z,0.40
2019-05-29T13:10:29.340Z,0.30
2019-05-29T13:12:44.104Z,0.30
2019-05-29T13:15:17.401Z,0.30
2019-05-29T13:17:45.822Z,0.30
2019-05-29T13:20:21.651Z,0.50
2019-05-29T13:22:46.308Z,0.40
2019-05-29T13:25:15.198Z,2.58
2019-05-29T13:27:43.633Z,0.88
2019-05-29T13:30:14.158Z,0.30
2019-05-29T13:32:43.032Z,0.42
2019-05-29T13:35:12.338Z,0.45
2019-05-29T13:37:40.763Z,0.28
2019-05-29T13:40:10.456Z,0.30
2019-05-29T13:42:38.874Z,0.47
2019-05-29T13:45:18.022Z,0.35
2019-05-29T13:47:38.609Z,0.60
2019-05-29T13:50:11.943Z,0.30
2019-05-29T13:52:39.434Z,0.55
2019-05-29T13:55:08.709Z,0.20
2019-05-29T13:57:39.730Z,0.30
2019-05-29T14:00:30.231Z,0.50
2019-05-29T14:02:40.071Z,0.30
2019-05-29T14:05:09.356Z,0.98
2019-05-29T14:07:38.055Z,0.60
2019-05-29T14:10:09.404Z,0.53
2019-05-29T14:12:38.314Z,0.62
2019-05-29T14:15:10.859Z,0.53
2019-05-29T14:17:39.280Z,0.28
2019-05-29T14:20:09.860Z,0.33
2019-05-29T14:22:38.337Z,0.40
2019-05-29T14:25:09.499Z,0.70
2019-05-29T14:27:38.173Z,0.30
2019-05-29T14:30:10.403Z,0.20
2019-05-29T14:32:39.208Z,0.33
2019-05-29T14:35:11.003Z,0.75
2019-05-29T14:37:39.507Z,0.40
2019-05-29T14:40:15.313Z,0.33
2019-05-29T14:42:43.767Z,0.30
2019-05-29T14:45:12.928Z,0.25
2019-05-29T14:47:41.359Z,0.65
2019-05-29T14:50:11.159Z,0.47
2019-05-29T14:52:40.125Z,0.55
2019-05-29T14:55:10.150Z,0.40
2019-05-29T14:57:38.942Z,0.50
2019-05-29T15:00:20.873Z,0.30
2019-05-29T15:02:40.511Z,0.28
2019-05-29T15:05:09.771Z,0.50
2019-05-29T15:07:38.334Z,0.60
2019-05-29T15:10:19.671Z,0.40
2019-05-29T15:12:39.105Z,0.25
2019-05-29T15:15:11.051Z,0.30
2019-05-29T15:17:39.320Z,0.57
2019-05-29T15:20:12.334Z,0.30
2019-05-29T15:22:40.442Z,0.30
2019-05-29T15:25:18.448Z,0.68
2019-05-29T15:27:40.482Z,0.40
2019-05-29T15:30:11.390Z,0.25
2019-05-29T15:32:40.103Z,0.40
2019-05-29T15:35:13.319Z,3.87
2019-05-29T15:37:39.200Z,0.60
2019-05-29T15:40:10.941Z,0.20
2019-05-29T15:42:39.508Z,0.30
2019-05-29T15:45:10.076Z,0.30
2019-05-29T15:47:38.547Z,0.80
2019-05-29T15:50:11.566Z,1.82
2019-05-29T15:52:40.213Z,0.60
2019-05-29T15:55:27.345Z,0.40
2019-05-29T15:57:39.566Z,0.23
2019-05-29T16:00:11.348Z,0.20
2019-05-29T16:02:40.270Z,1.10
2019-05-29T16:05:10.938Z,0.70
2019-05-29T16:07:39.644Z,0.20
2019-05-29T16:10:08.723Z,0.30
2019-05-29T16:12:37.138Z,0.20
2019-05-29T16:15:08.943Z,0.20
2019-05-29T16:17:37.584Z,1.87
2019-05-29T16:20:08.253Z,0.65
2019-05-29T16:22:36.675Z,1.15
2019-05-29T16:25:07.617Z,0.37
2019-05-29T16:27:36.213Z,2.10
2019-05-29T16:30:07.193Z,0.30
2019-05-29T16:32:35.653Z,0.70
2019-05-29T16:35:06.172Z,0.60
2019-05-29T16:37:34.666Z,0.25
2019-05-29T16:40:03.822Z,0.50
2019-05-29T16:42:32.348Z,0.60
2019-05-29T16:45:00.788Z,0.60
2019-05-29T16:47:29.227Z,0.50
2019-05-29T16:49:57.648Z,0.50
2019-05-29T16:52:26.124Z,0.33
2019-05-29T16:54:54.584Z,0.20
2019-05-29T16:57:23.438Z,0.23
2019-05-29T16:59:51.914Z,0.20
2019-05-29T17:02:21.635Z,0.33
2019-05-29T17:04:50.270Z,0.30
2019-05-29T17:07:19.992Z,0.40
2019-05-29T17:09:48.624Z,0.20
2019-05-29T17:12:18.077Z,1.10
2019-05-29T17:14:46.934Z,1.10
2019-05-29T17:17:16.781Z,0.40
2019-05-29T17:19:45.434Z,0.37
2019-05-29T17:22:14.564Z,0.27
2019-05-29T17:24:43.175Z,0.53
2019-05-29T17:27:11.603Z,0.70
2019-05-29T17:29:40.028Z,0.20
2019-05-29T17:32:08.469Z,0.40
2019-05-29T17:34:36.913Z,0.30
2019-05-29T17:37:05.335Z,0.40
2019-05-29T17:39:33.769Z,0.30
2019-05-29T17:42:02.212Z,0.50
2019-05-29T17:44:30.663Z,0.43
2019-05-29T17:46:59.166Z,0.30
2019-05-29T17:49:34.293Z,0.30
2019-05-29T17:51:57.830Z,3.03
2019-05-29T17:54:26.254Z,0.47
2019-05-29T17:56:55.112Z,0.40
2019-05-29T17:59:24.118Z,0.30
2019-05-29T18:01:52.771Z,0.70
2019-05-29T18:04:22.483Z,0.50
2019-05-29T18:06:51.200Z,0.35
2019-05-29T18:09:23.732Z,0.30
2019-05-29T18:11:49.895Z,0.50
2019-05-29T18:14:19.181Z,1.20
2019-05-29T18:16:47.707Z,0.40
2019-05-29T18:19:17.428Z,0.60
2019-05-29T18:21:46.163Z,0.80
2019-05-29T18:24:14.640Z,3.17
2019-05-29T18:26:47.290Z,2.00
2019-05-29T18:29:13.242Z,3.77
2019-05-29T18:31:41.750Z,0.80
2019-05-29T18:34:10.268Z,0.50
2019-05-29T18:36:38.737Z,0.80
2019-05-29T18:39:08.198Z,0.87
2019-05-29T18:41:36.651Z,0.50
2019-05-29T18:44:05.094Z,0.40
2019-05-29T18:46:37.533Z,0.60
2019-05-29T18:49:03.694Z,0.90
2019-05-29T18:51:32.853Z,0.40
2019-05-29T18:54:01.349Z,0.30
2019-05-29T18:56:30.601Z,0.50
2019-05-29T18:58:59.337Z,0.33
2019-05-29T19:01:27.778Z,0.60
2019-05-29T19:03:56.214Z,0.40
2019-05-29T19:06:25.565Z,0.43
2019-05-29T19:08:54.110Z,0.53
2019-05-29T19:11:23.674Z,0.30
2019-05-29T19:13:52.484Z,0.50
2019-05-29T19:16:21.824Z,0.40
2019-05-29T19:18:50.359Z,0.60
2019-05-29T19:21:18.776Z,0.73
2019-05-29T19:23:47.217Z,1.07
2019-05-29T19:26:15.635Z,1.23
2019-05-29T19:28:44.194Z,1.00
2019-05-29T19:31:12.618Z,0.60
2019-05-29T19:33:41.362Z,0.50
2019-05-29T19:36:09.792Z,0.60
2019-05-29T19:38:38.228Z,0.70
2019-05-29T19:41:06.919Z,1.67
2019-05-29T19:43:35.846Z,2.70
2019-05-29T19:46:04.505Z,2.10
2019-05-29T19:48:33.065Z,0.90
2019-05-29T19:51:01.559Z,0.70
2019-05-29T19:53:31.369Z,0.60
2019-05-29T19:55:59.998Z,0.40
2019-05-29T19:58:29.698Z,0.40
2019-05-29T20:00:58.276Z,0.50
2019-05-29T20:03:26.703Z,0.70
2019-05-29T20:05:55.702Z,0.83
2019-05-29T20:08:24.125Z,0.67
2019-05-29T20:10:52.535Z,1.00
2019-05-29T20:13:20.974Z,4.93
2019-05-29T20:15:49.471Z,5.83
2019-05-29T20:18:17.905Z,3.30
2019-05-29T20:20:46.321Z,1.57
2019-05-29T20:23:14.833Z,1.57
2019-05-29T20:25:43.259Z,1.00
2019-05-29T20:28:11.694Z,1.30
2019-05-29T20:30:40.120Z,1.30
2019-05-29T20:33:08.546Z,1.13
2019-05-29T20:35:37.010Z,1.53
2019-05-29T20:38:06.676Z,1.30
2019-05-29T20:40:35.411Z,1.40
2019-05-29T20:43:04.006Z,1.17
2019-05-29T20:45:33.375Z,1.03
2019-05-29T20:48:01.936Z,1.10
2019-05-29T20:50:30.889Z,1.57
2019-05-29T20:52:59.577Z,1.73
2019-05-29T20:55:28.134Z,1.60
2019-05-29T20:57:56.592Z,1.37
2019-05-29T21:00:25.714Z,1.50
2019-05-29T21:02:54.180Z,1.37
2019-05-29T21:05:22.619Z,1.90
2019-05-29T21:07:51.065Z,1.33
2019-05-29T21:10:19.729Z,1.10
2019-05-29T21:12:48.164Z,1.07
2019-05-29T21:15:18.065Z,1.87
2019-05-29T21:17:46.611Z,2.60
2019-05-29T21:20:15.481Z,1.87
2019-05-29T21:22:44.980Z,1.60
2019-05-29T21:25:18.683Z,1.17
2019-05-29T21:27:48.832Z,1.30
2019-05-29T21:30:15.028Z,1.20
2019-05-29T21:32:43.996Z,0.67
2019-05-29T21:35:13.003Z,0.80
2019-05-29T21:37:42.455Z,1.00
2019-05-29T21:40:12.206Z,0.67
2019-05-29T21:42:40.637Z,1.17
2019-05-29T21:45:09.200Z,0.57
2019-05-29T21:47:38.886Z,0.80
2019-05-29T21:50:08.366Z,1.17
2019-05-29T21:52:37.556Z,1.00
2019-05-29T21:55:07.826Z,1.07
2019-05-29T21:57:37.718Z,1.03
2019-05-29T22:00:14.424Z,0.83
2019-05-29T22:02:44.478Z,0.93
2019-05-29T22:05:13.476Z,0.53
2019-05-29T22:07:42.792Z,0.80
2019-05-29T22:10:11.673Z,0.73
2019-05-29T22:12:40.090Z,0.83
2019-05-29T22:15:08.582Z,1.07
2019-05-29T22:17:36.998Z,1.33
2019-05-29T22:20:07.171Z,0.90
2019-05-29T22:22:35.620Z,1.10
2019-05-29T22:25:06.323Z,1.03
2019-05-29T22:27:34.855Z,1.10
2019-05-29T22:30:04.610Z,0.97
2019-05-29T22:32:33.051Z,0.80
2019-05-29T22:35:01.929Z,0.90
2019-05-29T22:37:30.497Z,0.80
2019-05-29T22:39:59.603Z,1.03
2019-05-29T22:42:28.235Z,1.10
2019-05-29T22:44:57.696Z,1.20
2019-05-29T22:47:26.203Z,1.13
2019-05-29T22:49:55.768Z,1.80
2019-05-29T22:52:24.840Z,1.73
2019-05-29T22:54:53.801Z,1.70
2019-05-29T22:57:22.413Z,1.93
2019-05-29T22:59:51.834Z,1.60
2019-05-29T23:02:20.452Z,1.20
2019-05-29T23:04:49.015Z,1.30
2019-05-29T23:07:17.469Z,1.37
2019-05-29T23:09:45.974Z,1.63
2019-05-29T23:12:14.439Z,1.00
2019-05-29T23:14:42.861Z,1.00
2019-05-29T23:17:11.280Z,0.90
2019-05-29T23:19:39.778Z,1.40
2019-05-29T23:22:11.449Z,1.30
2019-05-29T23:24:39.897Z,1.10
2019-05-29T23:27:08.375Z,1.60
2019-05-29T23:29:48.435Z,1.57
2019-05-29T23:32:09.885Z,1.23
2019-05-29T23:34:38.291Z,1.40
2019-05-29T23:37:06.726Z,1.43
2019-05-29T23:39:35.166Z,1.50
2019-05-29T23:42:03.721Z,1.13
2019-05-29T23:44:32.208Z,1.33
2019-05-29T23:47:01.761Z,1.10
2019-05-29T23:49:30.379Z,1.63
2019-05-29T23:51:59.711Z,1.27
2019-05-29T23:54:28.359Z,1.47
2019-05-29T23:56:57.917Z,1.87
2019-05-29T23:59:26.491Z,1.23
